Time;durP1;ratioP1;P1;durP2;ratioP2;P2;SDS_P1;SDS_P2;PMS_P1;PMS_P2;Temp;Humidity;BMP_temperature;BMP_pressure;BME280_temperature;BME280_humidity;BME280_pressure;Samples;Min_cycle;Max_cycle;Signal;HPM_P1;HPM_P2
2023/04/02 00:01:18;;;;;;;3.47;0.80;;;8.30;99.90;;;;;;5124175;28;20198;-91
2023/04/02 00:04:20;;;;;;;3.20;0.50;;;8.60;99.90;;;;;;5129173;28;20266;-91
2023/04/02 00:07:17;;;;;;;1.37;0.67;;;9.00;99.90;;;;;;5122139;28;20199;-92
2023/04/02 00:09:48;;;;;;;2.60;1.00;;;9.30;99.90;;;;;;5103745;28;20198;-90
2023/04/02 00:12:21;;;;;;;2.87;0.87;;;9.10;99.90;;;;;;5108328;28;20203;-92
2023/04/02 00:14:56;;;;;;;1.67;0.77;;;8.90;99.90;;;;;;5107623;28;20222;-92
2023/04/02 00:17:28;;;;;;;2.37;0.70;;;8.70;99.90;;;;;;5108757;28;20236;-93
2023/04/02 00:20:07;;;;;;;1.77;0.50;;;8.50;99.90;;;;;;5112841;28;20569;-92
2023/04/02 00:22:45;;;;;;;2.03;0.53;;;8.50;99.90;;;;;;5102996;28;20203;-91
2023/04/02 00:25:18;;;;;;;1.47;0.70;;;8.40;99.90;;;;;;5105092;28;20783;-92
2023/04/02 00:27:51;;;;;;;1.80;0.53;;;8.30;99.90;;;;;;5098017;28;20215;-92
2023/04/02 00:30:36;;;;;;;1.70;0.77;;;8.20;99.90;;;;;;5107397;28;20229;-92
2023/04/02 00:33:16;;;;;;;2.47;0.80;;;8.30;99.90;;;;;;5117917;28;20334;-92
2023/04/02 00:35:54;;;;;;;2.20;0.60;;;8.50;99.90;;;;;;5085902;28;20298;-93
2023/04/02 00:38:30;;;;;;;4.37;0.93;;;8.60;99.90;;;;;;5107111;28;20205;-93
2023/04/02 00:41:07;;;;;;;2.27;0.90;;;8.70;99.90;;;;;;5096472;28;20259;-90
2023/04/02 00:43:43;;;;;;;4.93;0.97;;;8.70;99.90;;;;;;5114938;28;20239;-90
2023/04/02 00:46:17;;;;;;;2.80;0.70;;;8.90;99.90;;;;;;5117082;28;20213;-89
2023/04/02 00:48:55;;;;;;;0.83;0.53;;;9.00;99.90;;;;;;5116619;28;20284;-90
2023/04/02 00:51:33;;;;;;;1.43;0.60;;;9.20;99.90;;;;;;5117168;28;20202;-90
2023/04/02 00:54:14;;;;;;;1.93;0.73;;;9.10;99.90;;;;;;5100006;28;20206;-90
2023/04/02 00:56:47;;;;;;;1.00;0.50;;;9.20;99.90;;;;;;5096958;28;20549;-91
2023/04/02 00:59:23;;;;;;;1.57;0.90;;;9.20;99.90;;;;;;5095652;28;20218;-90
2023/04/02 01:02:00;;;;;;;1.37;0.50;;;9.30;99.90;;;;;;5078803;28;20252;-90
2023/04/02 01:04:35;;;;;;;0.50;0.50;;;9.20;99.90;;;;;;5097138;28;20202;-90
2023/04/02 01:07:11;;;;;;;1.03;0.50;;;9.00;99.90;;;;;;5096869;28;20210;-90
2023/04/02 01:09:56;;;;;;;1.50;0.70;;;8.80;99.90;;;;;;5097432;28;20570;-92
2023/04/02 01:12:44;;;;;;;2.57;0.77;;;8.30;99.90;;;;;;5099522;28;20237;-92
2023/04/02 01:15:22;;;;;;;1.27;0.40;;;8.10;99.90;;;;;;5080191;28;20571;-91
2023/04/02 01:18:25;;;;;;;0.87;0.50;;;8.20;99.90;;;;;;5096269;28;20229;-91
2023/04/02 01:21:12;;;;;;;4.67;1.00;;;8.40;99.90;;;;;;5097425;28;20218;-92
2023/04/02 01:24:01;;;;;;;1.47;0.73;;;8.20;99.90;;;;;;5097870;28;20228;-89
2023/04/02 01:26:44;;;;;;;0.90;0.50;;;8.20;99.90;;;;;;5110839;28;20205;-92
2023/04/02 01:29:22;;;;;;;2.53;0.73;;;8.20;99.90;;;;;;5125735;28;20214;-90
2023/04/02 01:31:56;;;;;;;1.27;0.80;;;8.10;99.90;;;;;;5116874;28;20274;-90
2023/04/02 01:34:29;;;;;;;1.17;1.00;;;8.30;99.90;;;;;;5138205;28;20213;-92
2023/04/02 01:37:31;;;;;;;2.13;0.60;;;8.30;99.90;;;;;;5138181;28;20706;-90
2023/04/02 01:40:26;;;;;;;1.83;0.60;;;8.30;99.90;;;;;;5113595;28;20198;-90
2023/04/02 01:43:07;;;;;;;1.60;0.80;;;8.20;99.90;;;;;;5096716;28;20210;-90
2023/04/02 01:45:41;;;;;;;1.73;0.70;;;8.30;99.90;;;;;;5090301;28;20198;-91
2023/04/02 01:48:18;;;;;;;3.13;0.70;;;8.40;99.90;;;;;;5122345;28;20658;-91
2023/04/02 01:50:53;;;;;;;2.00;0.70;;;8.40;99.90;;;;;;5121452;28;20193;-92
2023/04/02 01:53:28;;;;;;;2.00;0.60;;;8.30;99.90;;;;;;5120481;28;20425;-91
2023/04/02 01:56:01;;;;;;;2.33;0.73;;;8.30;99.90;;;;;;5119081;28;20287;-91
2023/04/02 01:58:34;;;;;;;4.23;0.70;;;8.30;99.90;;;;;;5103641;28;20195;-93
2023/04/02 02:01:13;;;;;;;2.63;0.60;;;8.00;99.90;;;;;;5108601;28;20687;-92
2023/04/02 02:03:47;;;;;;;3.47;0.80;;;7.80;99.90;;;;;;5112632;28;20278;-91
2023/04/02 02:06:19;;;;;;;2.47;0.67;;;7.60;99.90;;;;;;5100231;28;20229;-92
2023/04/02 02:08:54;;;;;;;2.87;0.80;;;7.50;99.90;;;;;;5126679;28;20216;-91
2023/04/02 02:11:27;;;;;;;4.50;1.03;;;7.50;99.90;;;;;;5117042;28;20217;-93
2023/04/02 02:14:00;;;;;;;3.13;0.90;;;7.20;99.90;;;;;;5115858;28;20206;-93
2023/04/02 02:16:40;;;;;;;1.37;0.67;;;7.20;99.90;;;;;;5103640;28;20264;-93
2023/04/02 02:19:25;;;;;;;1.87;0.60;;;7.20;99.90;;;;;;5119035;28;20241;-92
2023/04/02 02:22:03;;;;;;;2.90;1.13;;;7.10;99.90;;;;;;5125837;28;20214;-96
2023/04/02 02:33:25;;;;;;;2.63;1.20;;;6.90;99.90;;;;;;5815734;22;20226;-96
2023/04/02 02:36:05;;;;;;;3.70;1.73;;;6.90;99.90;;;;;;5270476;23;20228;-96
2023/04/02 02:41:25;;;;;;;1.40;0.57;;;6.60;99.90;;;;;;5235100;23;20226;-96
2023/04/02 02:44:03;;;;;;;2.67;0.90;;;6.40;99.90;;;;;;5136205;22;20240;-94
2023/04/02 02:46:36;;;;;;;2.10;0.80;;;6.30;99.90;;;;;;5029477;28;20213;-94
2023/04/02 02:49:18;;;;;;;2.23;1.10;;;6.30;99.90;;;;;;5024354;28;20229;-93
2023/04/02 02:51:59;;;;;;;3.47;0.80;;;6.10;99.90;;;;;;5021185;28;20217;-93
2023/04/02 02:54:33;;;;;;;3.20;1.20;;;6.10;99.90;;;;;;5053057;28;20238;-94
2023/04/02 02:57:08;;;;;;;1.77;0.83;;;6.00;99.90;;;;;;5019163;28;20388;-95
2023/04/02 02:59:41;;;;;;;3.20;0.80;;;5.90;99.90;;;;;;5027073;28;20240;-93
2023/04/02 03:02:13;;;;;;;4.27;0.90;;;5.90;99.90;;;;;;5028129;28;20250;-95
2023/04/02 03:04:52;;;;;;;5.67;1.00;;;5.80;99.90;;;;;;5036528;28;20209;-92
2023/04/02 03:07:29;;;;;;;3.23;0.90;;;5.70;99.90;;;;;;5044006;28;20287;-95
2023/04/02 03:10:10;;;;;;;2.43;0.63;;;5.70;99.90;;;;;;5023071;28;20308;-92
2023/04/02 03:12:48;;;;;;;1.60;0.50;;;5.70;99.90;;;;;;5026868;28;20209;-91
2023/04/02 03:15:28;;;;;;;4.37;0.93;;;5.70;99.90;;;;;;5029524;28;20275;-92
2023/04/02 03:18:04;;;;;;;1.07;0.50;;;5.60;99.90;;;;;;5034501;28;20204;-92
2023/04/02 03:20:44;;;;;;;2.70;0.73;;;5.60;99.90;;;;;;5047531;28;20227;-95
2023/04/02 03:23:23;;;;;;;4.50;0.67;;;5.50;99.90;;;;;;5029997;28;20224;-92
2023/04/02 03:26:01;;;;;;;4.70;0.90;;;5.50;99.90;;;;;;5021090;28;20268;-93
2023/04/02 03:28:39;;;;;;;4.33;1.30;;;5.50;99.90;;;;;;5020622;28;20214;-95
2023/04/02 03:31:16;;;;;;;3.17;1.50;;;5.50;99.90;;;;;;5021917;28;20209;-93
2023/04/02 03:33:56;;;;;;;4.40;1.30;;;5.40;99.90;;;;;;5024833;28;20295;-94
2023/04/02 03:36:42;;;;;;;4.30;1.80;;;5.40;99.90;;;;;;5027308;28;20252;-95
2023/04/02 03:39:22;;;;;;;3.13;1.60;;;5.30;99.90;;;;;;5036473;28;20292;-95
2023/04/02 03:41:58;;;;;;;3.80;1.47;;;5.30;99.90;;;;;;5024263;28;20205;-95
2023/04/02 03:44:34;;;;;;;3.93;1.50;;;5.20;99.90;;;;;;5028015;28;20283;-93
2023/04/02 03:47:14;;;;;;;5.23;1.17;;;5.20;99.90;;;;;;5053800;28;20214;-94
2023/04/02 03:50:03;;;;;;;2.07;1.00;;;5.20;99.90;;;;;;5060806;28;20210;-95
2023/04/02 03:52:41;;;;;;;4.17;1.13;;;5.10;99.90;;;;;;5036102;28;20217;-96
2023/04/02 03:58:08;;;;;;;5.00;0.60;;;5.00;99.90;;;;;;5033962;28;20305;-93
2023/04/02 04:00:45;;;;;;;4.40;0.93;;;5.00;99.90;;;;;;5039524;28;20211;-95
2023/04/02 04:03:20;;;;;;;3.10;1.00;;;4.90;99.90;;;;;;5041338;28;20223;-94
2023/04/02 04:05:56;;;;;;;1.70;0.80;;;4.90;99.90;;;;;;5065766;28;20211;-95
2023/04/02 04:08:36;;;;;;;2.20;0.70;;;4.90;99.90;;;;;;5065024;28;20234;-94
2023/04/02 04:11:14;;;;;;;4.47;1.00;;;4.90;99.90;;;;;;5055110;28;20202;-96
2023/04/02 04:13:53;;;;;;;2.60;1.00;;;4.90;99.90;;;;;;5040087;28;20288;-96
2023/04/02 04:16:31;;;;;;;1.93;0.80;;;4.80;99.90;;;;;;5040212;28;20234;-95
2023/04/02 04:19:06;;;;;;;2.77;0.70;;;4.70;99.90;;;;;;5035781;28;20201;-95
2023/04/02 04:21:38;;;;;;;4.70;1.00;;;4.80;99.90;;;;;;5037930;28;20201;-95
2023/04/02 04:24:20;;;;;;;4.50;1.23;;;4.70;99.90;;;;;;5042940;28;20228;-95
2023/04/02 04:27:02;;;;;;;2.70;0.70;;;4.70;99.90;;;;;;5039129;28;20232;-95
2023/04/02 04:29:44;;;;;;;6.77;1.10;;;4.70;99.90;;;;;;5038925;28;20224;-95
2023/04/02 04:32:31;;;;;;;2.53;0.70;;;4.70;99.90;;;;;;5036667;28;20217;-96
2023/04/02 04:35:10;;;;;;;1.97;0.70;;;4.60;99.90;;;;;;5035643;28;20266;-94
2023/04/02 04:37:48;;;;;;;4.07;0.80;;;4.60;99.90;;;;;;5045620;28;20235;-96
2023/04/02 04:40:25;;;;;;;5.70;0.93;;;4.60;99.90;;;;;;5041961;28;20231;-96
2023/04/02 04:43:00;;;;;;;3.80;0.80;;;4.50;99.90;;;;;;5033092;28;20205;-95
2023/04/02 04:45:42;;;;;;;4.57;1.23;;;4.50;99.90;;;;;;5054870;28;20207;-94
2023/04/02 04:48:20;;;;;;;2.60;0.90;;;4.50;99.90;;;;;;5035486;28;20212;-95
2023/04/02 04:50:58;;;;;;;2.13;0.80;;;4.50;99.90;;;;;;5033560;28;20826;-96
2023/04/02 04:53:31;;;;;;;3.00;1.17;;;4.40;99.90;;;;;;5036626;28;20209;-96
2023/04/02 04:56:33;;;;;;;3.87;0.93;;;4.40;99.90;;;;;;5040272;28;20224;-95
2023/04/02 04:59:14;;;;;;;3.33;0.90;;;4.40;99.90;;;;;;5041879;28;20208;-94
2023/04/02 05:01:50;;;;;;;5.33;0.80;;;4.50;99.90;;;;;;5028120;28;20309;-95
2023/04/02 05:04:26;;;;;;;1.20;0.90;;;4.50;99.90;;;;;;5033659;28;20228;-94
2023/04/02 05:07:06;;;;;;;3.20;0.77;;;4.60;99.90;;;;;;5030699;28;20674;-95
2023/04/02 05:09:43;;;;;;;3.53;0.90;;;4.60;99.90;;;;;;5025375;28;20208;-94
2023/04/02 05:12:23;;;;;;;5.83;1.00;;;4.60;99.90;;;;;;5038294;28;20208;-94
2023/04/02 05:14:59;;;;;;;6.43;1.20;;;4.60;99.90;;;;;;5041824;28;20220;-95
2023/04/02 05:17:36;;;;;;;3.30;1.53;;;4.50;99.90;;;;;;5037618;28;20232;-95
2023/04/02 05:20:19;;;;;;;1.90;1.07;;;4.50;99.90;;;;;;4679820;28;9999647;-94
2023/04/02 05:22:56;;;;;;;4.07;1.13;;;4.40;99.90;;;;;;5035910;28;20589;-95
2023/04/02 05:25:31;;;;;;;3.40;0.83;;;4.40;99.90;;;;;;5027312;28;20205;-96
2023/04/02 05:28:12;;;;;;;4.20;0.90;;;4.40;99.90;;;;;;5023017;28;20259;-94
2023/04/02 05:30:52;;;;;;;3.73;0.80;;;4.40;99.90;;;;;;5036430;28;20208;-95
2023/04/02 05:33:27;;;;;;;2.33;0.83;;;4.40;99.90;;;;;;5037272;28;20247;-96
2023/04/02 05:36:02;;;;;;;1.53;0.77;;;4.40;99.90;;;;;;5031761;28;20223;-96
2023/04/02 05:38:37;;;;;;;3.83;0.90;;;4.40;99.90;;;;;;5025542;28;20220;-96
2023/04/02 05:41:19;;;;;;;5.13;0.97;;;4.40;99.90;;;;;;5033512;28;20208;-96
2023/04/02 05:44:00;;;;;;;3.07;1.00;;;4.30;99.90;;;;;;5034014;28;20217;-96
2023/04/02 05:46:36;;;;;;;4.47;1.10;;;4.30;99.90;;;;;;5048543;23;20218;-96
2023/04/02 05:49:19;;;;;;;3.43;0.80;;;4.20;99.90;;;;;;5056314;23;20246;-95
2023/04/02 05:52:37;;;;;;;1.97;1.17;;;4.20;99.90;;;;;;5024898;28;20215;-96
2023/04/02 05:55:31;;;;;;;3.17;0.80;;;4.20;99.90;;;;;;4996924;28;20222;-95
2023/04/02 05:58:08;;;;;;;3.97;1.07;;;4.10;99.90;;;;;;4996796;28;20250;-95
2023/04/02 06:09:44;;;;;;;2.30;0.90;;;3.90;99.90;;;;;;5021471;28;20210;-94
2023/04/02 06:15:15;;;;;;;3.30;1.00;;;4.00;99.90;;;;;;5020625;28;20210;-95
2023/04/02 06:17:49;;;;;;;2.20;0.80;;;4.00;99.90;;;;;;5023032;28;20238;-96
2023/04/02 06:20:22;;;;;;;2.93;0.83;;;4.00;99.90;;;;;;5019257;28;20579;-95
2023/04/02 06:23:00;;;;;;;5.43;1.27;;;4.10;99.90;;;;;;5015909;28;20340;-95
2023/04/02 06:25:36;;;;;;;2.90;1.20;;;4.10;99.90;;;;;;5023779;28;20268;-94
2023/04/02 06:28:14;;;;;;;2.53;0.80;;;4.10;99.90;;;;;;5016268;28;20205;-95
2023/04/02 06:30:47;;;;;;;3.80;1.40;;;4.10;99.90;;;;;;5021978;28;20661;-96
2023/04/02 06:33:19;;;;;;;4.53;1.07;;;4.10;99.90;;;;;;5027269;28;20193;-94
2023/04/02 06:35:53;;;;;;;3.00;1.03;;;4.10;99.90;;;;;;5044367;28;20248;-94
2023/04/02 06:38:34;;;;;;;1.70;0.87;;;4.00;99.90;;;;;;5235711;23;20250;-95
2023/04/02 06:41:13;;;;;;;3.73;0.93;;;4.10;99.90;;;;;;5016859;28;20198;-96
2023/04/02 06:43:50;;;;;;;2.67;0.97;;;4.10;99.90;;;;;;5011719;28;20194;-95
2023/04/02 06:46:28;;;;;;;2.77;0.90;;;4.00;99.90;;;;;;5004871;28;20714;-95
2023/04/02 06:49:06;;;;;;;1.73;0.90;;;3.90;99.90;;;;;;5016491;28;20197;-95
2023/04/02 07:02:32;;;;;;;4.17;0.90;;;3.70;99.90;;;;;;5013851;28;20212;-93
2023/04/02 07:05:08;;;;;;;3.57;0.83;;;3.60;99.90;;;;;;4998658;28;20222;-95
2023/04/02 07:13:24;;;;;;;3.63;0.80;;;3.60;99.90;;;;;;5045620;28;20262;-96
2023/04/02 07:15:56;;;;;;;3.17;0.80;;;3.60;99.90;;;;;;5031896;28;20216;-94
2023/04/02 07:18:33;;;;;;;2.17;1.00;;;3.50;99.90;;;;;;5040129;28;20232;-94
2023/04/02 07:21:05;;;;;;;3.80;0.60;;;3.50;99.90;;;;;;5042999;28;20205;-93
2023/04/02 07:23:37;;;;;;;1.37;0.70;;;3.60;99.90;;;;;;5046392;28;20278;-94
2023/04/02 07:26:10;;;;;;;3.57;1.00;;;3.60;99.90;;;;;;5048126;28;20209;-94
2023/04/02 07:28:41;;;;;;;2.30;0.80;;;3.50;99.90;;;;;;5040287;28;20213;-94
2023/04/02 07:31:18;;;;;;;2.73;0.90;;;3.50;99.90;;;;;;5037631;28;20625;-94
2023/04/02 07:33:56;;;;;;;2.77;0.73;;;3.50;99.90;;;;;;5037944;28;20291;-94
2023/04/02 07:36:30;;;;;;;2.33;0.80;;;3.50;99.90;;;;;;5046754;28;20208;-96
2023/04/02 07:39:01;;;;;;;4.60;1.10;;;3.50;99.90;;;;;;5049037;28;20243;-93
2023/04/02 07:41:34;;;;;;;3.60;1.00;;;3.50;99.90;;;;;;5053266;28;20239;-96
2023/04/02 07:44:07;;;;;;;1.03;0.50;;;3.50;99.90;;;;;;5053938;28;20200;-95
2023/04/02 07:46:39;;;;;;;14.90;1.70;;;3.60;99.90;;;;;;5038041;28;20572;-91
2023/04/02 07:49:14;;;;;;;2.23;0.60;;;3.60;99.90;;;;;;5041615;28;20213;-94
2023/04/02 07:51:46;;;;;;;2.83;0.80;;;3.60;99.90;;;;;;5046002;28;20201;-94
2023/04/02 07:54:19;;;;;;;3.10;0.60;;;3.60;99.90;;;;;;5027301;28;20221;-94
2023/04/02 07:56:56;;;;;;;1.27;0.70;;;3.60;99.90;;;;;;5029982;28;20201;-94
2023/04/02 07:59:27;;;;;;;2.80;0.80;;;3.60;99.90;;;;;;5045017;28;20243;-94
2023/04/02 08:01:59;;;;;;;4.90;0.80;;;3.60;99.90;;;;;;5056773;28;20217;-95
2023/04/02 08:04:35;;;;;;;3.70;0.83;;;3.60;99.90;;;;;;5045875;28;20251;-93
2023/04/02 08:07:07;;;;;;;2.57;0.90;;;3.60;99.90;;;;;;5044090;28;20208;-95
2023/04/02 08:09:39;;;;;;;3.57;0.90;;;3.60;99.90;;;;;;5037588;28;20284;-94
2023/04/02 08:12:13;;;;;;;1.73;0.80;;;3.60;99.90;;;;;;5033497;28;20213;-94
2023/04/02 08:14:46;;;;;;;1.97;0.93;;;3.60;99.90;;;;;;5043940;28;20212;-94
2023/04/02 08:17:19;;;;;;;1.33;0.60;;;3.60;99.90;;;;;;5035513;28;20205;-92
2023/04/02 08:19:54;;;;;;;2.20;1.07;;;3.60;99.90;;;;;;5044493;28;20208;-94
2023/04/02 08:22:26;;;;;;;2.13;0.87;;;3.60;99.90;;;;;;5048779;28;20215;-94
2023/04/02 08:24:58;;;;;;;2.77;0.90;;;3.60;99.90;;;;;;5056363;28;20182;-92
2023/04/02 08:27:29;;;;;;;2.30;0.90;;;3.60;99.90;;;;;;5058015;28;20212;-95
2023/04/02 08:30:01;;;;;;;6.03;1.20;;;3.70;99.90;;;;;;5054607;28;20219;-93
2023/04/02 08:32:33;;;;;;;4.10;0.70;;;3.70;99.90;;;;;;5059307;28;20191;-90
2023/04/02 08:35:15;;;;;;;1.23;0.83;;;3.70;99.90;;;;;;5055517;28;20232;-94
2023/04/02 08:37:47;;;;;;;1.60;0.60;;;3.60;99.90;;;;;;5066354;28;20220;-94
2023/04/02 08:40:24;;;;;;;1.93;0.70;;;3.50;99.90;;;;;;5062356;28;20223;-93
2023/04/02 08:43:14;;;;;;;0.57;0.40;;;3.30;99.90;;;;;;5059216;28;20220;-94
2023/04/02 08:45:58;;;;;;;2.47;0.50;;;3.20;99.90;;;;;;5041716;28;20230;-94
2023/04/02 08:48:32;;;;;;;2.90;0.90;;;3.00;99.90;;;;;;5039584;28;20212;-93
2023/04/02 08:51:09;;;;;;;3.43;0.80;;;2.90;99.90;;;;;;5045632;28;20220;-94
2023/04/02 08:53:41;;;;;;;1.97;0.63;;;2.90;99.90;;;;;;5044383;28;20212;-94
2023/04/02 08:56:21;;;;;;;1.63;0.60;;;2.90;99.90;;;;;;5037828;28;20210;-93
2023/04/02 08:58:54;;;;;;;1.70;0.70;;;2.90;99.90;;;;;;5041755;28;20240;-94
2023/04/02 09:01:37;;;;;;;3.83;0.90;;;2.90;99.90;;;;;;5042411;28;20213;-94
2023/04/02 09:04:17;;;;;;;2.47;1.07;;;2.90;99.90;;;;;;5041370;28;20213;-95
2023/04/02 09:06:53;;;;;;;8.10;1.30;;;2.80;99.90;;;;;;5051871;28;20267;-96
2023/04/02 09:09:24;;;;;;;3.33;0.90;;;2.80;99.90;;;;;;5056274;28;20223;-94
2023/04/02 09:12:00;;;;;;;1.93;1.00;;;2.80;99.90;;;;;;5069035;28;20186;-95
2023/04/02 09:14:41;;;;;;;5.07;0.93;;;2.90;99.90;;;;;;5058183;28;20239;-94
2023/04/02 09:17:20;;;;;;;3.50;1.30;;;2.80;99.90;;;;;;5054538;28;20189;-94
2023/04/02 09:19:57;;;;;;;3.40;1.30;;;2.80;99.90;;;;;;5057866;28;20220;-93
2023/04/02 09:22:33;;;;;;;4.47;1.17;;;2.70;99.90;;;;;;5044172;28;20223;-90
2023/04/02 09:25:13;;;;;;;3.50;1.13;;;2.70;99.90;;;;;;5047978;28;20218;-93
2023/04/02 09:27:50;;;;;;;1.97;0.93;;;2.70;99.90;;;;;;5077038;28;20184;-94
2023/04/02 09:30:35;;;;;;;2.07;1.00;;;2.70;99.90;;;;;;5067087;28;20212;-93
2023/04/02 09:33:08;;;;;;;2.33;1.00;;;2.70;99.90;;;;;;5038234;28;20193;-92
2023/04/02 09:35:56;;;;;;;3.07;1.20;;;2.70;99.90;;;;;;5051130;28;20192;-94
2023/04/02 09:38:34;;;;;;;3.03;1.13;;;2.70;99.90;;;;;;5057066;28;20244;-93
2023/04/02 09:41:07;;;;;;;4.03;0.97;;;2.70;99.90;;;;;;5058203;28;20189;-94
2023/04/02 09:43:39;;;;;;;2.13;1.03;;;2.70;99.90;;;;;;5047858;28;20205;-93
2023/04/02 09:46:20;;;;;;;1.90;1.47;;;2.60;99.90;;;;;;5042104;28;20209;-94
2023/04/02 09:48:57;;;;;;;3.43;1.37;;;2.60;99.90;;;;;;5042807;28;20692;-94
2023/04/02 09:51:33;;;;;;;1.47;1.30;;;2.50;99.90;;;;;;5044109;28;20237;-94
2023/04/02 09:54:22;;;;;;;3.87;1.30;;;2.50;99.90;;;;;;5049900;28;20216;-93
2023/04/02 09:57:06;;;;;;;4.63;1.07;;;2.50;99.90;;;;;;5056200;28;20189;-95
2023/04/02 09:59:38;;;;;;;2.37;1.00;;;2.50;99.90;;;;;;5041265;28;20266;-95
2023/04/02 10:02:29;;;;;;;1.07;0.97;;;2.50;99.90;;;;;;5057088;28;20212;-93
2023/04/02 10:05:05;;;;;;;4.50;1.00;;;2.60;99.90;;;;;;5052011;28;20197;-93
2023/04/02 10:07:42;;;;;;;1.53;1.00;;;2.60;99.90;;;;;;5032411;28;20205;-93
2023/04/02 10:10:23;;;;;;;2.70;1.17;;;2.70;99.90;;;;;;5024496;28;20205;-94
2023/04/02 10:13:03;;;;;;;3.60;1.03;;;2.70;99.90;;;;;;5023869;28;20221;-95
2023/04/02 10:15:39;;;;;;;5.87;1.20;;;2.60;99.90;;;;;;5022223;28;20231;-93
2023/04/02 10:18:17;;;;;;;3.57;1.07;;;2.60;99.90;;;;;;5021280;28;20217;-95
2023/04/02 10:20:52;;;;;;;2.43;0.80;;;2.60;99.90;;;;;;5029501;28;20212;-92
2023/04/02 10:23:29;;;;;;;2.67;1.10;;;2.60;99.90;;;;;;5041497;28;20208;-95
2023/04/02 10:26:19;;;;;;;3.30;1.13;;;2.70;99.90;;;;;;5026547;28;20201;-93
2023/04/02 10:29:05;;;;;;;3.30;1.13;;;2.70;99.90;;;;;;5019184;28;20561;-95
2023/04/02 10:31:48;;;;;;;3.83;0.90;;;2.70;99.90;;;;;;5021769;28;20206;-93
2023/04/02 10:34:26;;;;;;;2.47;0.90;;;2.70;99.90;;;;;;5021183;28;20255;-93
2023/04/02 10:37:02;;;;;;;3.10;1.10;;;2.70;99.90;;;;;;5024950;28;20215;-92
2023/04/02 10:39:39;;;;;;;1.07;0.70;;;2.70;99.90;;;;;;5035122;28;20237;-91
2023/04/02 10:42:27;;;;;;;8.53;1.00;;;2.80;99.90;;;;;;5049498;28;20189;-93
2023/04/02 10:45:03;;;;;;;1.50;0.80;;;2.80;99.90;;;;;;5056475;28;20192;-93
2023/04/02 10:47:39;;;;;;;2.47;1.00;;;2.80;99.90;;;;;;5053983;28;20243;-94
2023/04/02 10:50:28;;;;;;;1.00;0.90;;;2.80;99.90;;;;;;5042598;28;20213;-93
2023/04/02 10:53:09;;;;;;;3.37;1.07;;;2.80;99.90;;;;;;5040544;28;20213;-94
2023/04/02 10:55:46;;;;;;;1.83;0.93;;;2.80;99.90;;;;;;5039922;28;20267;-94
2023/04/02 10:58:25;;;;;;;2.47;1.00;;;2.90;99.90;;;;;;5039004;28;20564;-94
2023/04/02 11:01:00;;;;;;;5.27;0.93;;;2.80;99.90;;;;;;5039507;28;20259;-93
2023/04/02 11:03:38;;;;;;;2.00;1.00;;;2.80;99.90;;;;;;5038329;28;20208;-92
2023/04/02 11:06:28;;;;;;;1.60;0.83;;;2.80;99.90;;;;;;5039788;28;20247;-94
2023/04/02 11:09:04;;;;;;;4.13;1.20;;;2.70;99.90;;;;;;5038506;28;20303;-94
2023/04/02 11:11:41;;;;;;;3.90;1.27;;;2.70;99.90;;;;;;5040296;28;20278;-93
2023/04/02 11:14:18;;;;;;;2.53;1.20;;;2.70;99.90;;;;;;5024289;28;20243;-94
2023/04/02 11:16:52;;;;;;;2.27;1.10;;;2.80;99.90;;;;;;5018672;28;20221;-91
2023/04/02 11:19:26;;;;;;;2.40;1.20;;;2.80;99.90;;;;;;5020436;28;20649;-92
2023/04/02 11:21:59;;;;;;;3.53;1.10;;;2.80;99.90;;;;;;5032280;28;20296;-93
2023/04/02 11:24:43;;;;;;;4.17;1.40;;;2.90;99.90;;;;;;5021057;28;20619;-92
2023/04/02 11:27:23;;;;;;;4.17;1.40;;;2.90;99.90;;;;;;5025444;28;20247;-94
2023/04/02 11:30:04;;;;;;;4.30;1.30;;;2.90;99.90;;;;;;5041964;28;20201;-92
2023/04/02 11:32:41;;;;;;;4.30;1.30;;;2.90;99.90;;;;;;5047414;28;20319;-93
2023/04/02 11:35:37;;;;;;;2.90;1.40;;;2.90;99.90;;;;;;5051835;28;20215;-93
2023/04/02 11:38:45;;;;;;;4.70;1.50;;;2.90;99.90;;;;;;5023618;28;20238;-92
2023/04/02 11:41:55;;;;;;;1.77;1.00;;;2.90;99.90;;;;;;5023903;28;20233;-93
2023/04/02 11:44:27;;;;;;;3.80;1.00;;;2.90;99.90;;;;;;5023219;28;20237;-92
2023/04/02 11:47:21;;;;;;;1.17;1.07;;;2.90;99.90;;;;;;5023865;28;20214;-93
2023/04/02 11:50:01;;;;;;;4.17;1.43;;;2.90;99.90;;;;;;5035287;28;20205;-94
2023/04/02 11:52:52;;;;;;;2.37;0.83;;;3.00;99.90;;;;;;5041266;28;20237;-93
2023/04/02 11:55:30;;;;;;;1.63;1.00;;;3.00;99.90;;;;;;5042407;28;20204;-93
2023/04/02 11:58:31;;;;;;;2.73;0.73;;;2.90;99.90;;;;;;5040804;28;20665;-93
2023/04/02 12:01:32;;;;;;;2.23;0.90;;;2.90;99.90;;;;;;5050075;28;20345;-94
2023/04/02 12:04:38;;;;;;;2.40;0.70;;;2.90;99.90;;;;;;5020473;28;20200;-94
2023/04/02 12:07:35;;;;;;;0.60;0.57;;;2.80;99.90;;;;;;5054371;28;20281;-93
2023/04/02 12:10:16;;;;;;;1.50;0.60;;;2.80;99.90;;;;;;5007662;28;20212;-93
2023/04/02 12:12:48;;;;;;;1.57;0.63;;;2.80;99.90;;;;;;5062777;28;20414;-93
2023/04/02 12:15:44;;;;;;;0.60;0.40;;;2.70;99.90;;;;;;5059724;28;20212;-93
2023/04/02 12:18:18;;;;;;;1.50;0.60;;;2.70;99.90;;;;;;5023025;28;20232;-94
2023/04/02 12:20:54;;;;;;;0.50;0.47;;;2.70;99.90;;;;;;5040823;28;20240;-94
2023/04/02 12:23:30;;;;;;;1.03;0.50;;;2.70;99.90;;;;;;5042774;28;20209;-93
2023/04/02 12:26:05;;;;;;;1.33;0.50;;;2.70;99.90;;;;;;5042896;28;20204;-93
2023/04/02 12:28:41;;;;;;;2.17;0.67;;;2.70;99.90;;;;;;5041613;28;20208;-94
2023/04/02 12:31:17;;;;;;;0.80;0.67;;;2.60;99.90;;;;;;5041323;28;20286;-95
2023/04/02 12:33:54;;;;;;;1.07;0.70;;;2.60;99.90;;;;;;5042434;28;20271;-93
2023/04/02 12:36:28;;;;;;;0.50;0.50;;;2.70;99.90;;;;;;5038680;28;20205;-94
2023/04/02 12:39:00;;;;;;;0.70;0.60;;;2.70;99.90;;;;;;5040277;28;20208;-93
2023/04/02 12:41:34;;;;;;;1.00;0.50;;;2.60;99.90;;;;;;5041807;28;20244;-94
2023/04/02 12:44:10;;;;;;;0.83;0.60;;;2.60;99.90;;;;;;5041831;28;20217;-92
2023/04/02 12:46:42;;;;;;;1.37;0.60;;;2.60;99.90;;;;;;5040869;28;20278;-94
2023/04/02 12:49:37;;;;;;;0.50;0.50;;;2.60;99.90;;;;;;5054299;28;20197;-94
2023/04/02 12:52:14;;;;;;;0.50;0.50;;;2.60;99.90;;;;;;5038303;28;20193;-94
2023/04/02 12:54:47;;;;;;;0.77;0.40;;;2.60;99.90;;;;;;5028020;28;20209;-92
2023/04/02 12:57:34;;;;;;;0.87;0.40;;;2.70;99.90;;;;;;5023459;28;20213;-93
2023/04/02 13:00:31;;;;;;;0.73;0.40;;;2.70;99.90;;;;;;5045670;28;20235;-93
2023/04/02 13:03:18;;;;;;;1.27;0.57;;;2.70;99.90;;;;;;5043236;28;20208;-93
2023/04/02 13:05:56;;;;;;;0.40;0.40;;;2.80;99.90;;;;;;5040478;28;20205;-93
2023/04/02 13:08:38;;;;;;;0.80;0.43;;;2.80;99.90;;;;;;5039702;28;20204;-94
2023/04/02 13:11:10;;;;;;;0.50;0.50;;;2.80;99.90;;;;;;5040459;28;20229;-93
2023/04/02 13:13:44;;;;;;;1.77;0.63;;;2.80;99.90;;;;;;5041788;28;20704;-92
2023/04/02 13:16:34;;;;;;;0.40;0.40;;;2.80;99.90;;;;;;5041579;28;20220;-93
2023/04/02 13:19:31;;;;;;;1.43;0.50;;;2.90;99.90;;;;;;5019098;28;20209;-93
2023/04/02 13:22:05;;;;;;;0.33;0.33;;;2.90;99.90;;;;;;5010249;28;20234;-89
2023/04/02 13:24:40;;;;;;;0.90;0.50;;;2.90;99.90;;;;;;5037314;28;20256;-93
2023/04/02 13:27:12;;;;;;;0.40;0.40;;;2.90;99.90;;;;;;5039086;28;20220;-92
2023/04/02 13:29:44;;;;;;;1.07;0.40;;;3.00;99.90;;;;;;5038317;28;20212;-91
2023/04/02 13:32:16;;;;;;;0.30;0.30;;;3.10;99.90;;;;;;5034816;28;20233;-92
2023/04/02 13:34:47;;;;;;;0.93;0.53;;;3.00;99.90;;;;;;5039375;28;20263;-92
2023/04/02 13:37:18;;;;;;;0.93;0.40;;;3.00;99.90;;;;;;5038696;28;20212;-94
2023/04/02 13:39:51;;;;;;;0.90;0.50;;;3.00;99.90;;;;;;5039136;28;20301;-91
2023/04/02 13:42:23;;;;;;;1.77;0.40;;;3.10;99.90;;;;;;5037851;28;20255;-92
2023/04/02 13:44:54;;;;;;;0.70;0.50;;;3.10;99.90;;;;;;5038957;28;20732;-93
2023/04/02 13:47:26;;;;;;;1.27;0.53;;;3.00;99.90;;;;;;5026004;28;20217;-93
2023/04/02 13:49:57;;;;;;;0.87;0.57;;;3.00;99.90;;;;;;5019504;28;20285;-93
2023/04/02 13:52:28;;;;;;;0.70;0.53;;;3.00;99.90;;;;;;5034040;28;20228;-93
2023/04/02 13:55:02;;;;;;;0.60;0.50;;;2.90;99.90;;;;;;5037608;28;20259;-93
2023/04/02 13:57:34;;;;;;;1.93;0.60;;;2.90;99.90;;;;;;5037846;28;20231;-92
2023/04/02 14:00:07;;;;;;;2.30;0.77;;;2.90;99.90;;;;;;5031840;28;20211;-93
2023/04/02 14:02:43;;;;;;;2.27;0.60;;;3.00;99.90;;;;;;5038798;28;20663;-93
2023/04/02 14:05:26;;;;;;;1.23;0.90;;;3.00;99.90;;;;;;5025801;28;20898;-94
2023/04/02 14:08:08;;;;;;;2.40;0.80;;;2.90;99.90;;;;;;5030653;28;20303;-93
2023/04/02 14:10:55;;;;;;;0.70;0.70;;;2.90;99.90;;;;;;5024751;28;20201;-93
2023/04/02 14:13:41;;;;;;;0.83;0.70;;;2.90;99.90;;;;;;5038077;28;20208;-93
2023/04/02 14:16:28;;;;;;;1.70;0.70;;;2.90;99.90;;;;;;5034361;28;20892;-93
2023/04/02 14:19:16;;;;;;;1.10;0.83;;;2.90;99.90;;;;;;5036245;28;20573;-94
2023/04/02 14:22:03;;;;;;;2.53;0.90;;;2.80;99.90;;;;;;5020091;28;20241;-91
2023/04/02 14:24:46;;;;;;;4.07;0.77;;;2.70;99.90;;;;;;5021003;28;20214;-92
2023/04/02 14:27:37;;;;;;;1.27;0.73;;;2.70;99.90;;;;;;5019805;28;20258;-95
2023/04/02 14:30:16;;;;;;;1.57;0.60;;;2.60;99.90;;;;;;5020096;28;20213;-94
2023/04/02 14:33:00;;;;;;;2.57;0.50;;;2.50;99.90;;;;;;5032089;28;20201;-94
2023/04/02 14:35:37;;;;;;;2.27;0.67;;;2.30;99.90;;;;;;5041458;28;20200;-94
2023/04/02 14:38:15;;;;;;;5.13;0.80;;;2.20;99.90;;;;;;5058543;28;20280;-94
2023/04/02 14:40:50;;;;;;;0.83;0.60;;;2.20;99.90;;;;;;5048240;28;20723;-94